createdAt,value
2023-06-24T00:00:17.753Z,24.40
2023-06-24T00:01:17.847Z,24.39
2023-06-24T00:02:17.831Z,24.34
2023-06-24T00:03:17.959Z,24.36
2023-06-24T00:04:17.908Z,24.36
2023-06-24T00:05:17.935Z,24.36
2023-06-24T00:06:17.997Z,24.34
2023-06-24T00:07:18.157Z,24.33
2023-06-24T00:08:18.112Z,24.33
2023-06-24T00:09:18.137Z,24.31
2023-06-24T00:10:18.595Z,24.29
2023-06-24T00:11:18.235Z,24.29
2023-06-24T00:12:18.298Z,24.26
2023-06-24T00:13:18.322Z,24.29
2023-06-24T00:14:18.371Z,24.27
2023-06-24T00:15:18.397Z,24.30
2023-06-24T00:16:18.424Z,24.30
2023-06-24T00:17:18.470Z,24.30
2023-06-24T00:18:18.528Z,24.27
2023-06-24T00:19:18.567Z,24.31
2023-06-24T00:20:18.597Z,24.30
2023-06-24T00:21:18.636Z,24.30
2023-06-24T00:22:18.664Z,24.29
2023-06-24T00:23:18.701Z,24.27
2023-06-24T00:24:18.799Z,24.26
2023-06-24T00:25:18.858Z,24.29
2023-06-24T00:26:18.951Z,24.24
2023-06-24T00:27:18.906Z,24.29
2023-06-24T00:28:18.960Z,24.27
2023-06-24T00:29:19.008Z,24.26
2023-06-24T00:30:19.095Z,24.27
2023-06-24T00:31:19.128Z,24.22
2023-06-24T00:32:19.187Z,24.22
2023-06-24T00:33:19.249Z,24.23
2023-06-24T00:34:19.279Z,24.22
2023-06-24T00:35:19.410Z,24.24
2023-06-24T00:36:19.397Z,24.22
2023-06-24T00:37:19.468Z,24.20
2023-06-24T00:38:19.497Z,24.24
2023-06-24T00:39:19.550Z,24.23
2023-06-24T00:40:19.606Z,24.23
2023-06-24T00:41:19.717Z,24.20
2023-06-24T00:42:19.748Z,24.23
2023-06-24T00:43:19.833Z,24.20
2023-06-24T00:44:19.899Z,24.20
2023-06-24T00:45:19.966Z,24.19
2023-06-24T00:46:20.004Z,24.19
2023-06-24T00:47:20.134Z,24.19
2023-06-24T00:48:20.139Z,24.19
2023-06-24T00:49:20.198Z,24.20
2023-06-24T00:50:20.269Z,24.17
2023-06-24T00:51:20.341Z,24.17
2023-06-24T00:52:20.408Z,24.17
2023-06-24T00:53:20.418Z,24.16
2023-06-24T00:54:20.512Z,24.16
2023-06-24T00:55:20.596Z,24.16
2023-06-24T00:56:20.636Z,24.16
2023-06-24T00:57:20.705Z,24.12
2023-06-24T00:58:20.760Z,24.06
2023-06-24T00:59:20.801Z,24.03
2023-06-24T01:00:20.843Z,24.09
2023-06-24T01:01:20.928Z,24.09
2023-06-24T01:02:20.994Z,24.08
2023-06-24T01:03:21.080Z,24.06
2023-06-24T01:04:21.139Z,24.08
2023-06-24T01:05:21.178Z,24.03
2023-06-24T01:06:21.444Z,24.03
2023-06-24T01:07:21.393Z,24.02
2023-06-24T01:08:21.321Z,24.02
2023-06-24T01:09:21.365Z,24.05
2023-06-24T01:10:21.426Z,24.02
2023-06-24T01:11:21.517Z,24.03
2023-06-24T01:12:21.563Z,24.03
2023-06-24T01:13:21.589Z,24.02
2023-06-24T01:14:21.691Z,24.01
2023-06-24T01:15:21.759Z,24.03
2023-06-24T01:16:21.783Z,24.01
2023-06-24T01:17:21.885Z,24.01
2023-06-24T01:18:21.828Z,23.98
2023-06-24T01:19:21.830Z,23.98
2023-06-24T01:20:21.840Z,24.01
2023-06-24T01:21:21.851Z,23.99
2023-06-24T01:22:21.856Z,23.98
2023-06-24T01:23:31.888Z,23.95
2023-06-24T01:24:34.947Z,23.96
2023-06-24T01:25:32.447Z,23.95
2023-06-24T01:26:32.011Z,23.98
2023-06-24T01:27:31.885Z,23.98
2023-06-24T01:28:21.871Z,23.94
2023-06-24T01:29:31.912Z,23.94
2023-06-24T01:30:31.904Z,23.89
2023-06-24T01:31:32.169Z,23.89
2023-06-24T01:32:31.956Z,23.89
2023-06-24T01:33:30.213Z,23.89
2023-06-24T01:34:21.832Z,23.88
2023-06-24T01:35:21.900Z,23.86
2023-06-24T01:36:21.913Z,23.85
2023-06-24T01:37:21.972Z,23.86
2023-06-24T01:38:22.029Z,23.82
2023-06-24T01:39:22.064Z,23.81
2023-06-24T01:40:22.095Z,23.81
2023-06-24T01:41:22.097Z,23.79
2023-06-24T01:42:22.134Z,23.77
2023-06-24T01:43:22.167Z,23.68
2023-06-24T01:44:22.119Z,23.75
2023-06-24T01:45:22.161Z,23.79
2023-06-24T01:46:22.223Z,23.84
2023-06-24T01:47:22.188Z,23.85
2023-06-24T01:48:22.180Z,23.86
2023-06-24T01:49:30.649Z,23.72
2023-06-24T01:50:22.281Z,23.64
2023-06-24T01:51:22.322Z,23.67
2023-06-24T01:52:22.345Z,23.67
2023-06-24T01:53:22.418Z,23.72
2023-06-24T01:54:22.428Z,23.71
2023-06-24T01:55:22.453Z,23.71
2023-06-24T01:56:22.521Z,23.74
2023-06-24T01:57:22.545Z,23.68
2023-06-24T01:58:22.545Z,23.67
2023-06-24T01:59:22.608Z,23.67
2023-06-24T02:00:22.619Z,23.68
2023-06-24T02:01:22.831Z,23.69
2023-06-24T02:02:22.733Z,23.69
2023-06-24T02:03:22.880Z,23.71
2023-06-24T02:04:22.686Z,23.71
2023-06-24T02:05:22.713Z,23.74
2023-06-24T02:06:22.758Z,23.72
2023-06-24T02:07:22.858Z,23.72
2023-06-24T02:08:22.742Z,23.69
2023-06-24T02:09:22.795Z,23.71
2023-06-24T02:10:22.777Z,23.69
2023-06-24T02:11:22.850Z,23.69
2023-06-24T02:12:22.869Z,23.67
2023-06-24T02:13:22.908Z,23.65
2023-06-24T02:14:22.934Z,23.60
2023-06-24T02:15:22.978Z,23.61
2023-06-24T02:16:23.053Z,23.58
2023-06-24T02:17:23.121Z,23.57
2023-06-24T02:18:23.078Z,23.57
2023-06-24T02:19:23.126Z,23.61
2023-06-24T02:20:23.160Z,23.62
2023-06-24T02:21:23.206Z,23.58
2023-06-24T02:22:23.195Z,23.61
2023-06-24T02:23:23.189Z,23.60
2023-06-24T02:24:23.262Z,23.57
2023-06-24T02:25:23.293Z,23.56
2023-06-24T02:26:23.312Z,23.56
2023-06-24T02:27:23.328Z,23.54
2023-06-24T02:28:23.338Z,23.57
2023-06-24T02:29:23.383Z,23.53
2023-06-24T02:30:24.159Z,23.34
2023-06-24T02:31:23.621Z,23.41
2023-06-24T02:32:23.485Z,23.43
2023-06-24T02:33:23.468Z,23.43
2023-06-24T02:34:23.519Z,23.44
2023-06-24T02:35:23.535Z,23.43
2023-06-24T02:36:23.573Z,23.43
2023-06-24T02:37:23.591Z,23.44
2023-06-24T02:38:23.624Z,23.49
2023-06-24T02:39:23.669Z,23.49
2023-06-24T02:40:23.682Z,23.46
2023-06-24T02:41:23.672Z,23.47
2023-06-24T02:42:23.743Z,23.49
2023-06-24T02:43:23.758Z,23.44
2023-06-24T02:44:23.800Z,23.43
2023-06-24T02:45:23.807Z,23.43
2023-06-24T02:46:23.873Z,23.39
2023-06-24T02:47:23.948Z,23.37
2023-06-24T02:48:23.924Z,23.40
2023-06-24T02:49:23.957Z,23.43
2023-06-24T02:50:23.985Z,23.44
2023-06-24T02:51:23.989Z,23.40
2023-06-24T02:52:24.059Z,23.41
2023-06-24T02:53:24.100Z,23.43
2023-06-24T02:54:24.108Z,23.46
2023-06-24T02:55:24.147Z,23.46
2023-06-24T02:56:24.656Z,23.41
2023-06-24T02:57:24.249Z,23.43
2023-06-24T02:58:24.309Z,23.41
2023-06-24T02:59:24.323Z,23.41
2023-06-24T03:00:24.382Z,23.41
2023-06-24T03:01:24.458Z,23.44
2023-06-24T03:02:24.517Z,23.43
2023-06-24T03:03:24.553Z,23.39
2023-06-24T03:04:24.564Z,23.41
2023-06-24T03:05:24.540Z,23.41
2023-06-24T03:06:24.569Z,23.39
2023-06-24T03:07:24.643Z,23.40
2023-06-24T03:08:24.651Z,23.40
2023-06-24T03:09:24.721Z,23.37
2023-06-24T03:10:24.746Z,23.37
2023-06-24T03:11:24.817Z,23.36
2023-06-24T03:12:24.844Z,23.39
2023-06-24T03:13:24.884Z,23.41
2023-06-24T03:14:24.921Z,23.39
2023-06-24T03:15:27.770Z,23.43
2023-06-24T03:16:24.974Z,23.39
2023-06-24T03:17:24.965Z,23.39
2023-06-24T03:18:24.922Z,23.39
2023-06-24T03:19:24.933Z,23.39
2023-06-24T03:20:24.963Z,23.37
2023-06-24T03:21:25.151Z,23.37
2023-06-24T03:22:24.910Z,23.37
2023-06-24T03:23:24.902Z,23.36
2023-06-24T03:24:24.886Z,23.33
2023-06-24T03:25:24.900Z,23.34
2023-06-24T03:26:24.902Z,23.33
2023-06-24T03:28:39.237Z,23.31
2023-06-24T03:29:39.222Z,23.33
2023-06-24T03:30:39.185Z,23.30
2023-06-24T03:31:39.234Z,23.31
2023-06-24T03:32:39.296Z,23.31
2023-06-24T03:33:39.202Z,23.31
2023-06-24T03:34:39.163Z,23.36
2023-06-24T03:35:39.214Z,23.31
2023-06-24T03:36:39.136Z,23.29
2023-06-24T03:37:39.157Z,23.29
2023-06-24T03:38:39.123Z,23.30
2023-06-24T03:39:39.140Z,23.29
2023-06-24T03:40:39.112Z,23.29
2023-06-24T03:41:39.091Z,23.27
2023-06-24T03:42:39.171Z,23.26
2023-06-24T03:43:39.182Z,23.30
2023-06-24T03:44:39.235Z,23.27
2023-06-24T03:45:39.330Z,23.30
2023-06-24T03:46:39.332Z,23.33
2023-06-24T03:47:39.383Z,23.34
2023-06-24T03:48:39.431Z,23.30
2023-06-24T03:49:39.464Z,23.31
2023-06-24T03:50:39.504Z,23.31
2023-06-24T03:51:39.576Z,23.31
2023-06-24T03:52:39.624Z,23.30
2023-06-24T03:53:39.712Z,23.30
2023-06-24T03:54:39.746Z,23.31
2023-06-24T03:55:39.795Z,23.30
2023-06-24T03:56:39.855Z,23.33
2023-06-24T03:57:39.897Z,23.27
2023-06-24T03:58:39.939Z,23.31
2023-06-24T03:59:40.035Z,23.34
2023-06-24T04:00:40.071Z,23.36
2023-06-24T04:01:40.232Z,23.36
2023-06-24T04:02:40.196Z,23.36
2023-06-24T04:03:40.247Z,23.31
2023-06-24T04:04:40.262Z,23.34
2023-06-24T04:05:40.326Z,23.36
2023-06-24T04:06:40.363Z,23.36
2023-06-24T04:07:40.412Z,23.34
2023-06-24T04:08:40.465Z,23.34
2023-06-24T04:09:40.503Z,23.37
2023-06-24T04:10:40.540Z,23.37
2023-06-24T04:11:40.926Z,23.39
2023-06-24T04:12:40.610Z,23.41
2023-06-24T04:13:40.701Z,23.41
2023-06-24T04:14:40.735Z,23.29
2023-06-24T04:15:40.747Z,23.27
2023-06-24T04:16:40.816Z,23.26
2023-06-24T04:17:40.924Z,23.27
2023-06-24T04:18:40.971Z,23.29
2023-06-24T04:19:41.013Z,23.29
2023-06-24T04:20:41.041Z,23.31
2023-06-24T04:21:41.085Z,23.31
2023-06-24T04:22:41.184Z,23.33
2023-06-24T04:23:41.214Z,23.34
2023-06-24T04:24:41.276Z,23.33
2023-06-24T04:25:41.287Z,23.34
2023-06-24T04:26:41.320Z,23.36
2023-06-24T04:27:41.379Z,23.37
2023-06-24T04:28:41.414Z,23.36
2023-06-24T04:29:41.521Z,23.36
2023-06-24T04:30:41.529Z,23.34
2023-06-24T04:31:41.660Z,23.33
2023-06-24T04:32:41.691Z,23.33
2023-06-24T04:33:41.705Z,23.33
2023-06-24T04:34:41.765Z,23.34
2023-06-24T04:35:41.831Z,23.31
2023-06-24T04:36:41.848Z,23.29
2023-06-24T04:37:41.950Z,23.26
2023-06-24T04:38:41.958Z,23.26
2023-06-24T04:39:42.040Z,23.26
2023-06-24T04:40:42.074Z,23.23
2023-06-24T04:41:42.159Z,23.22
2023-06-24T04:42:42.198Z,23.24
2023-06-24T04:43:42.241Z,23.27
2023-06-24T04:44:42.325Z,23.29
2023-06-24T04:45:42.349Z,23.19
2023-06-24T04:46:42.431Z,23.20
2023-06-24T04:47:42.524Z,23.24
2023-06-24T04:48:42.550Z,23.20
2023-06-24T04:49:42.578Z,23.20
2023-06-24T04:50:42.632Z,23.24
2023-06-24T04:51:42.662Z,23.14
2023-06-24T04:52:42.783Z,23.20
2023-06-24T04:53:42.808Z,23.23
2023-06-24T04:54:42.856Z,23.24
2023-06-24T04:55:42.863Z,23.30
2023-06-24T04:56:42.907Z,23.30
2023-06-24T04:57:42.982Z,23.31
2023-06-24T04:58:42.996Z,23.31
2023-06-24T04:59:43.065Z,23.34
2023-06-24T05:00:43.120Z,23.31
2023-06-24T05:01:43.198Z,23.34
2023-06-24T05:02:43.207Z,23.31
2023-06-24T05:03:43.225Z,23.36
2023-06-24T05:04:43.287Z,23.34
2023-06-24T05:05:43.686Z,23.31
2023-06-24T05:06:43.422Z,23.33
2023-06-24T05:07:43.439Z,23.34
2023-06-24T05:08:43.432Z,23.34
2023-06-24T05:09:43.493Z,23.36
2023-06-24T05:10:43.612Z,23.34
2023-06-24T05:11:43.601Z,23.33
2023-06-24T05:12:43.686Z,23.27
2023-06-24T05:13:43.731Z,23.30
2023-06-24T05:14:43.870Z,23.30
2023-06-24T05:15:43.833Z,23.30
2023-06-24T05:16:43.919Z,23.26
2023-06-24T05:17:44.040Z,23.19
2023-06-24T05:18:44.024Z,23.14
2023-06-24T05:19:44.093Z,23.16
2023-06-24T05:20:44.180Z,23.09
2023-06-24T05:21:44.208Z,23.06
2023-06-24T05:22:44.295Z,22.94
2023-06-24T05:23:44.321Z,22.95
2023-06-24T05:24:44.405Z,22.96
2023-06-24T05:25:44.466Z,22.94
2023-06-24T05:26:44.527Z,22.92
2023-06-24T05:27:44.511Z,22.85
2023-06-24T05:28:44.648Z,22.86
2023-06-24T05:29:44.701Z,22.89
2023-06-24T05:30:44.771Z,22.91
2023-06-24T05:31:44.816Z,22.80
2023-06-24T05:32:44.873Z,22.91
2023-06-24T05:33:44.938Z,22.94
2023-06-24T05:34:44.990Z,22.86
2023-06-24T05:35:45.060Z,22.88
2023-06-24T05:36:45.072Z,22.88
2023-06-24T05:37:45.070Z,22.94
2023-06-24T05:38:45.131Z,22.92
2023-06-24T05:39:45.175Z,22.92
2023-06-24T05:40:45.206Z,22.96
2023-06-24T05:41:45.282Z,22.98
2023-06-24T05:42:45.415Z,22.98
2023-06-24T05:43:45.417Z,23.02
2023-06-24T05:44:45.457Z,23.03
2023-06-24T05:45:45.516Z,23.09
2023-06-24T05:46:45.604Z,23.10
2023-06-24T05:47:45.656Z,23.17
2023-06-24T05:48:45.674Z,23.20
2023-06-24T05:49:45.701Z,23.23
2023-06-24T05:50:45.692Z,23.27
2023-06-24T05:51:45.989Z,23.30
2023-06-24T05:52:45.780Z,23.33
2023-06-24T05:53:45.794Z,23.34
2023-06-24T05:54:45.830Z,23.36
2023-06-24T05:55:45.844Z,23.41
2023-06-24T05:56:45.912Z,23.46
2023-06-24T05:57:45.913Z,23.47
2023-06-24T05:58:45.921Z,23.46
2023-06-24T05:59:45.992Z,23.30
2023-06-24T06:00:46.009Z,23.39
2023-06-24T06:01:46.050Z,23.39
2023-06-24T06:02:46.138Z,23.39
2023-06-24T06:03:46.153Z,23.41
2023-06-24T06:04:46.141Z,23.37
2023-06-24T06:05:46.198Z,23.37
2023-06-24T06:06:46.351Z,23.37
2023-06-24T06:07:46.309Z,23.40
2023-06-24T06:08:46.356Z,23.41
2023-06-24T06:09:46.376Z,23.43
2023-06-24T06:10:46.419Z,23.39
2023-06-24T06:11:46.504Z,23.34
2023-06-24T06:12:46.492Z,23.33
2023-06-24T06:13:46.593Z,23.31
2023-06-24T06:14:46.668Z,23.31
2023-06-24T06:15:46.708Z,23.31
2023-06-24T06:16:46.867Z,23.30
2023-06-24T06:17:46.787Z,23.36
2023-06-24T06:18:46.810Z,23.41
2023-06-24T06:19:47.181Z,23.43
2023-06-24T06:20:46.889Z,23.36
2023-06-24T06:21:46.978Z,23.43
2023-06-24T06:22:46.988Z,23.41
2023-06-24T06:23:47.015Z,23.41
2023-06-24T06:24:47.026Z,23.46
2023-06-24T06:25:49.173Z,23.43
2023-06-24T06:26:47.114Z,23.40
2023-06-24T06:27:47.168Z,23.41
2023-06-24T06:28:47.203Z,23.39
2023-06-24T06:29:47.210Z,23.46
2023-06-24T06:30:47.271Z,23.50
2023-06-24T06:31:47.323Z,23.46
2023-06-24T06:32:47.333Z,23.51
2023-06-24T06:33:47.326Z,23.53
2023-06-24T06:34:47.334Z,23.53
2023-06-24T06:35:47.345Z,23.54
2023-06-24T06:36:47.399Z,23.57
2023-06-24T06:37:47.432Z,23.56
2023-06-24T06:38:47.402Z,23.56
2023-06-24T06:39:47.435Z,23.47
2023-06-24T06:40:47.488Z,23.53
2023-06-24T06:41:47.492Z,23.57
2023-06-24T06:42:47.566Z,23.56
2023-06-24T06:43:47.589Z,23.49
2023-06-24T06:44:47.574Z,23.40
2023-06-24T06:45:47.670Z,23.43
2023-06-24T06:46:47.644Z,23.44
2023-06-24T06:47:47.753Z,23.43
2023-06-24T06:48:47.725Z,23.41
2023-06-24T06:49:47.764Z,23.46
2023-06-24T06:50:47.749Z,23.49
2023-06-24T06:51:47.831Z,23.53
2023-06-24T06:52:47.849Z,23.58
2023-06-24T06:53:47.837Z,23.61
2023-06-24T06:54:47.859Z,23.65
2023-06-24T06:55:47.827Z,23.68
2023-06-24T06:56:47.836Z,23.74
2023-06-24T06:57:47.844Z,23.77
2023-06-24T06:58:47.849Z,23.82
2023-06-24T06:59:47.857Z,23.77
2023-06-24T07:00:47.905Z,23.85
2023-06-24T07:01:48.007Z,23.88
2023-06-24T07:02:48.011Z,23.91
2023-06-24T07:03:48.014Z,23.94
2023-06-24T07:04:47.966Z,23.92
2023-06-24T07:05:47.972Z,23.95
2023-06-24T07:06:48.089Z,23.95
2023-06-24T07:07:48.067Z,23.95
2023-06-24T07:08:48.074Z,23.99
2023-06-24T07:09:48.159Z,23.95
2023-06-24T07:10:48.206Z,24.03
2023-06-24T07:11:48.248Z,24.08
2023-06-24T07:12:48.302Z,24.11
2023-06-24T07:13:48.387Z,24.13
2023-06-24T07:14:48.435Z,24.15
2023-06-24T07:15:48.459Z,24.17
2023-06-24T07:16:48.506Z,24.16
2023-06-24T07:17:48.607Z,24.09
2023-06-24T07:18:48.655Z,24.06
2023-06-24T07:19:48.701Z,24.08
2023-06-24T07:20:48.814Z,24.12
2023-06-24T07:21:48.828Z,24.12
2023-06-24T07:22:48.856Z,24.12
2023-06-24T07:23:48.978Z,24.16
2023-06-24T07:24:48.966Z,24.08
2023-06-24T07:25:49.014Z,24.11
2023-06-24T07:26:49.105Z,24.13
2023-06-24T07:27:49.142Z,24.15
2023-06-24T07:28:56.864Z,24.20
2023-06-24T07:29:50.209Z,24.22
2023-06-24T07:30:49.193Z,24.24
2023-06-24T07:31:49.257Z,24.27
2023-06-24T07:32:49.209Z,24.31
2023-06-24T07:33:49.135Z,24.33
2023-06-24T07:34:49.168Z,24.37
2023-06-24T07:35:49.164Z,24.39
2023-06-24T07:36:49.176Z,24.43
2023-06-24T07:37:49.144Z,24.44
2023-06-24T07:38:49.155Z,24.49
2023-06-24T07:39:49.152Z,24.54
2023-06-24T07:40:49.217Z,24.58
2023-06-24T07:41:49.235Z,24.61
2023-06-24T07:42:49.228Z,24.61
2023-06-24T07:43:49.246Z,24.57
2023-06-24T07:44:49.292Z,24.47
2023-06-24T07:45:49.298Z,24.20
2023-06-24T07:46:49.360Z,24.31
2023-06-24T07:47:49.457Z,24.34
2023-06-24T07:48:49.345Z,24.33
2023-06-24T07:49:49.413Z,24.36
2023-06-24T07:50:49.404Z,24.34
2023-06-24T07:51:49.490Z,24.37
2023-06-24T07:52:49.482Z,24.46
2023-06-24T07:53:49.541Z,24.50
2023-06-24T07:54:49.562Z,24.54
2023-06-24T07:55:49.605Z,24.60
2023-06-24T07:56:49.608Z,24.60
2023-06-24T07:57:49.607Z,24.66
2023-06-24T07:58:49.656Z,24.71
2023-06-24T07:59:49.681Z,24.72
2023-06-24T08:00:49.701Z,24.82
2023-06-24T08:01:49.725Z,24.85
2023-06-24T08:02:49.877Z,24.86
2023-06-24T08:03:49.783Z,24.88
2023-06-24T08:04:49.866Z,24.89
2023-06-24T08:05:49.949Z,24.68
2023-06-24T08:06:49.840Z,24.79
2023-06-24T08:07:49.772Z,24.81
2023-06-24T08:08:49.747Z,24.84
2023-06-24T08:09:49.743Z,24.86
2023-06-24T08:10:49.769Z,24.70
2023-06-24T08:11:49.806Z,24.79
2023-06-24T08:12:49.808Z,24.85
2023-06-24T08:13:49.826Z,24.85
2023-06-24T08:14:49.820Z,24.91
2023-06-24T08:15:49.845Z,24.95
2023-06-24T08:16:49.772Z,24.98
2023-06-24T08:17:49.822Z,25.03
2023-06-24T08:18:49.824Z,24.98
2023-06-24T08:19:49.785Z,25.05
2023-06-24T08:20:49.847Z,25.08
2023-06-24T08:21:49.824Z,25.12
2023-06-24T08:22:49.812Z,25.15
2023-06-24T08:23:49.839Z,25.18
2023-06-24T08:24:49.913Z,25.22
2023-06-24T08:25:50.095Z,25.26
2023-06-24T08:26:50.014Z,25.29
2023-06-24T08:27:50.036Z,25.36
2023-06-24T08:28:50.103Z,25.40
2023-06-24T08:29:50.179Z,25.29
2023-06-24T08:30:50.290Z,25.36
2023-06-24T08:31:50.296Z,25.44
2023-06-24T08:32:50.421Z,25.47
2023-06-24T08:33:50.421Z,25.49
2023-06-24T08:34:50.446Z,25.41
2023-06-24T08:35:50.514Z,25.40
2023-06-24T08:36:50.606Z,25.32
2023-06-24T08:37:50.623Z,25.40
2023-06-24T08:38:50.712Z,25.40
2023-06-24T08:39:50.745Z,25.40
2023-06-24T08:40:50.757Z,25.46
2023-06-24T08:41:50.842Z,25.49
2023-06-24T08:42:50.902Z,25.51
2023-06-24T08:43:50.877Z,25.56
2023-06-24T08:44:50.931Z,25.53
2023-06-24T08:45:50.981Z,25.58
2023-06-24T08:46:51.034Z,25.58
2023-06-24T08:47:51.099Z,25.46
2023-06-24T08:48:51.226Z,25.37
2023-06-24T08:49:51.103Z,25.39
2023-06-24T08:50:51.176Z,25.47
2023-06-24T08:51:51.186Z,25.49
2023-06-24T08:52:51.221Z,25.54
2023-06-24T08:53:51.263Z,25.43
2023-06-24T08:54:51.352Z,25.44
2023-06-24T08:55:51.346Z,25.46
2023-06-24T08:56:51.391Z,25.47
2023-06-24T08:57:51.418Z,25.44
2023-06-24T08:58:51.467Z,25.47
2023-06-24T08:59:51.507Z,25.51
2023-06-24T09:00:51.562Z,25.50
2023-06-24T09:01:52.103Z,25.39
2023-06-24T09:02:51.737Z,25.23
2023-06-24T09:03:51.625Z,25.18
2023-06-24T09:04:51.614Z,25.05
2023-06-24T09:05:51.671Z,25.22
2023-06-24T09:06:51.731Z,25.33
2023-06-24T09:07:51.737Z,25.39
2023-06-24T09:08:51.697Z,25.46
2023-06-24T09:09:51.701Z,25.54
2023-06-24T09:10:51.760Z,25.47
2023-06-24T09:11:51.772Z,25.57
2023-06-24T09:12:51.785Z,25.64
2023-06-24T09:13:51.800Z,25.67
2023-06-24T09:14:51.824Z,25.66
2023-06-24T09:15:51.839Z,25.75
2023-06-24T09:16:51.815Z,25.80
2023-06-24T09:17:51.904Z,25.78
2023-06-24T09:18:51.865Z,25.81
2023-06-24T09:19:51.859Z,25.70
2023-06-24T09:20:51.892Z,25.70
2023-06-24T09:21:51.970Z,25.80
2023-06-24T09:22:51.947Z,25.87
2023-06-24T09:23:51.883Z,25.81
2023-06-24T09:24:51.965Z,25.85
2023-06-24T09:25:51.924Z,25.92
2023-06-24T09:26:51.972Z,25.85
2023-06-24T09:27:51.947Z,25.89
2023-06-24T09:28:51.980Z,25.95
2023-06-24T09:29:52.027Z,25.95
2023-06-24T09:30:52.043Z,25.98
2023-06-24T09:31:52.094Z,26.02
2023-06-24T09:32:52.092Z,26.08
2023-06-24T09:33:52.163Z,26.09
2023-06-24T09:34:52.057Z,26.22
2023-06-24T09:35:52.089Z,26.13
2023-06-24T09:36:52.139Z,26.20
2023-06-24T09:37:52.098Z,26.09
2023-06-24T09:38:52.118Z,26.15
2023-06-24T09:39:52.159Z,26.19
2023-06-24T09:40:56.299Z,26.23
2023-06-24T09:41:53.135Z,26.23
2023-06-24T09:42:52.132Z,26.30
2023-06-24T09:43:52.114Z,26.40
2023-06-24T09:44:52.138Z,26.29
2023-06-24T09:45:52.132Z,26.39
2023-06-24T09:46:52.134Z,26.36
2023-06-24T09:47:52.180Z,26.44
2023-06-24T09:48:52.119Z,26.46
2023-06-24T09:49:52.073Z,26.56
2023-06-24T09:50:52.092Z,26.60
2023-06-24T09:51:52.078Z,26.68
2023-06-24T09:52:52.102Z,26.74
2023-06-24T09:53:52.078Z,26.83
2023-06-24T09:54:52.132Z,26.84
2023-06-24T09:55:52.109Z,26.88
2023-06-24T09:56:52.142Z,26.92
2023-06-24T09:57:52.197Z,26.85
2023-06-24T09:58:52.234Z,26.73
2023-06-24T09:59:52.304Z,26.78
2023-06-24T10:00:52.369Z,26.88
2023-06-24T10:01:52.485Z,26.91
2023-06-24T10:02:52.500Z,26.80
2023-06-24T10:03:52.520Z,26.95
2023-06-24T10:04:52.464Z,26.78
2023-06-24T10:05:52.544Z,26.80
2023-06-24T10:06:52.571Z,26.75
2023-06-24T10:07:52.503Z,26.92
2023-06-24T10:08:52.569Z,26.90
2023-06-24T10:09:52.549Z,26.90
2023-06-24T10:10:52.540Z,27.05
2023-06-24T10:11:52.546Z,27.12
2023-06-24T10:12:52.550Z,27.25
2023-06-24T10:13:52.559Z,27.09
2023-06-24T10:14:52.559Z,27.16
2023-06-24T10:15:52.611Z,27.24
2023-06-24T10:16:52.665Z,27.21
2023-06-24T10:17:58.282Z,27.28
2023-06-24T10:18:53.686Z,27.09
2023-06-24T10:19:52.715Z,27.24
2023-06-24T10:20:52.698Z,27.22
2023-06-24T10:21:52.665Z,27.29
2023-06-24T10:22:52.671Z,27.29
2023-06-24T10:23:52.679Z,27.30
2023-06-24T10:24:52.626Z,27.30
2023-06-24T10:25:52.651Z,27.18
2023-06-24T10:26:52.627Z,26.84
2023-06-24T10:27:52.635Z,26.87
2023-06-24T10:28:52.657Z,26.78
2023-06-24T10:29:52.619Z,26.70
2023-06-24T10:30:52.648Z,26.74
2023-06-24T10:31:53.077Z,26.66
2023-06-24T10:32:52.628Z,26.77
2023-06-24T10:33:52.602Z,26.77
2023-06-24T10:34:52.654Z,26.84
2023-06-24T10:35:52.592Z,26.87
2023-06-24T10:36:53.069Z,26.88
2023-06-24T10:37:52.625Z,26.90
2023-06-24T10:38:52.612Z,26.73
2023-06-24T10:39:52.646Z,26.70
2023-06-24T10:40:52.656Z,26.81
2023-06-24T10:41:52.693Z,26.67
2023-06-24T10:42:52.642Z,26.77
2023-06-24T10:43:52.672Z,26.81
2023-06-24T10:44:52.718Z,26.92
2023-06-24T10:45:52.717Z,26.77
2023-06-24T10:46:52.714Z,26.84
2023-06-24T10:47:52.732Z,26.64
2023-06-24T10:48:52.710Z,26.50
2023-06-24T10:49:52.747Z,26.60
2023-06-24T10:50:52.754Z,26.46
2023-06-24T10:51:52.761Z,26.57
2023-06-24T10:52:52.798Z,26.57
2023-06-24T10:53:52.780Z,26.58
2023-06-24T10:54:52.782Z,26.58
2023-06-24T10:55:52.791Z,26.63
2023-06-24T10:56:52.798Z,26.32
2023-06-24T10:57:52.836Z,26.32
2023-06-24T10:58:52.853Z,26.44
2023-06-24T10:59:52.884Z,26.33
2023-06-24T11:00:52.992Z,26.56
2023-06-24T11:01:52.904Z,26.68
2023-06-24T11:02:53.017Z,26.56
2023-06-24T11:03:52.882Z,26.54
2023-06-24T11:04:52.892Z,26.50
2023-06-24T11:05:52.914Z,26.57
2023-06-24T11:06:52.924Z,26.61
2023-06-24T11:07:52.915Z,26.61
2023-06-24T11:08:52.932Z,26.67
2023-06-24T11:09:52.959Z,26.68
2023-06-24T11:10:53.011Z,26.78
2023-06-24T11:11:53.137Z,26.73
2023-06-24T11:12:53.126Z,26.63
2023-06-24T11:13:53.113Z,26.63
2023-06-24T11:14:53.142Z,26.74
2023-06-24T11:15:53.090Z,26.30
2023-06-24T11:16:53.132Z,26.19
2023-06-24T11:17:53.185Z,26.32
2023-06-24T11:18:53.189Z,26.33
2023-06-24T11:19:53.207Z,26.33
2023-06-24T11:20:53.199Z,26.36
2023-06-24T11:21:53.277Z,26.23
2023-06-24T11:22:53.307Z,26.32
2023-06-24T11:23:53.312Z,26.60
2023-06-24T11:24:53.284Z,26.87
2023-06-24T11:25:53.352Z,26.83
2023-06-24T11:26:53.417Z,26.85
2023-06-24T11:27:53.449Z,27.02
2023-06-24T11:28:53.535Z,27.11
2023-06-24T11:29:53.535Z,27.09
2023-06-24T11:30:53.597Z,27.05
2023-06-24T11:31:53.653Z,27.25
2023-06-24T11:32:53.699Z,27.40
2023-06-24T11:33:53.683Z,27.45
2023-06-24T11:34:53.687Z,27.21
2023-06-24T11:35:53.707Z,27.06
2023-06-24T11:36:54.104Z,27.05
2023-06-24T11:37:53.833Z,27.09
2023-06-24T11:38:53.857Z,27.03
2023-06-24T11:39:53.915Z,27.16
2023-06-24T11:40:53.944Z,27.13
2023-06-24T11:41:54.086Z,27.26
2023-06-24T11:42:53.984Z,27.25
2023-06-24T11:43:54.011Z,27.28
2023-06-24T11:44:54.009Z,27.28
2023-06-24T11:45:54.035Z,27.39
2023-06-24T11:46:54.082Z,27.25
2023-06-24T11:47:54.132Z,27.47
2023-06-24T11:48:54.086Z,27.54
2023-06-24T11:49:54.101Z,27.49
2023-06-24T11:50:54.092Z,27.45
2023-06-24T11:51:54.142Z,27.58
2023-06-24T11:52:54.108Z,27.63
2023-06-24T11:53:54.152Z,27.54
2023-06-24T11:54:54.165Z,27.64
2023-06-24T11:55:54.187Z,27.58
2023-06-24T11:56:54.246Z,27.60
2023-06-24T11:57:54.336Z,27.52
2023-06-24T11:58:54.289Z,27.58
2023-06-24T11:59:54.361Z,27.81
2023-06-24T12:00:54.378Z,27.79
2023-06-24T12:01:54.375Z,27.87
2023-06-24T12:02:54.407Z,27.97
2023-06-24T12:03:54.630Z,28.18
2023-06-24T12:04:54.425Z,28.12
2023-06-24T12:05:54.395Z,28.26
2023-06-24T12:06:54.508Z,28.26
2023-06-24T12:08:03.620Z,28.23
2023-06-24T12:10:14.207Z,27.91
2023-06-24T12:11:24.162Z,27.90
2023-06-24T12:12:14.212Z,27.94
2023-06-24T12:13:14.240Z,27.91
2023-06-24T12:14:14.173Z,27.95
2023-06-24T12:15:14.188Z,28.11
2023-06-24T12:16:14.185Z,28.12
2023-06-24T12:17:14.226Z,28.13
2023-06-24T12:18:14.143Z,28.09
2023-06-24T12:19:14.157Z,28.08
2023-06-24T12:20:14.129Z,27.91
2023-06-24T12:21:14.184Z,27.98
2023-06-24T12:22:14.111Z,27.85
2023-06-24T12:23:14.130Z,27.75
2023-06-24T12:24:14.124Z,27.85
2023-06-24T12:25:14.118Z,27.77
2023-06-24T12:26:14.110Z,27.80
2023-06-24T12:27:14.083Z,27.87
2023-06-24T12:28:14.100Z,27.88
2023-06-24T12:29:14.155Z,27.92
2023-06-24T12:30:14.053Z,27.87
2023-06-24T12:31:14.083Z,27.94
2023-06-24T12:32:14.085Z,27.79
2023-06-24T12:33:16.372Z,27.77
2023-06-24T12:34:14.153Z,27.84
2023-06-24T12:35:14.188Z,27.84
2023-06-24T12:36:14.125Z,27.63
2023-06-24T12:37:14.179Z,27.70
2023-06-24T12:38:14.203Z,27.84
2023-06-24T12:39:17.701Z,27.90
2023-06-24T12:40:14.167Z,27.97
2023-06-24T12:41:14.211Z,27.90
2023-06-24T12:42:14.137Z,27.88
2023-06-24T12:43:14.147Z,27.98
2023-06-24T12:44:14.155Z,27.94
2023-06-24T12:45:14.139Z,28.04
2023-06-24T12:46:14.144Z,27.90
2023-06-24T12:47:14.119Z,27.68
2023-06-24T12:48:14.131Z,27.70
2023-06-24T12:49:14.129Z,27.68
2023-06-24T12:50:14.170Z,27.74
2023-06-24T12:51:14.097Z,27.75
2023-06-24T12:52:14.121Z,27.64
2023-06-24T12:53:14.092Z,27.50
2023-06-24T12:54:14.090Z,27.67
2023-06-24T12:55:16.087Z,27.54